This is the latest recevied weather packets stored in our database for station/object VR2OT-10. If no packets are shown the sender has not sent any weather packets the latest 10 day(s).
| Time | Temp. | Humidity | Pressure | Rain* | Wind** | Luminosity | Snow |
|---|---|---|---|---|---|---|---|
| 1778204838 | 27.22° C | 77% | 1013.8 hPa | - | 1.34 m/s, 135° | - | - |
| 1778203939 | 27.78° C | 77% | 1013.6 hPa | - | 1.34 m/s, 135° | - | - |
| 1778203038 | 27.78° C | 77% | 1013.5 hPa | - | 0.45 m/s, ° | - | - |
| 1778202137 | 27.22° C | 80% | 1013.5 hPa | - | 0.45 m/s, 225° | - | - |
| 1778201237 | 27.78° C | 80% | 1013.5 hPa | - | 0.45 m/s, 225° | - | - |
| 1778199438 | 26.67° C | 86% | 1013.3 hPa | - | 0.45 m/s, 225° | - | - |
| 1778198539 | 26.67° C | 87% | 1013.3 hPa | - | 0 m/s | - | - |
| 1778197638 | 26.11° C | 90% | 1013.2 hPa | - | 0 m/s | - | - |
| 1778196737 | 25.56° C | 89% | 1012.8 hPa | - | - | - | - |
| 1778194939 | 24.44° C | 92% | 1012.6 hPa | - | 0.45 m/s, 135° | - | - |
| 1778194037 | 23.89° C | 91% | 1012.3 hPa | - | 0.89 m/s, 135° | - | - |
| 1778193139 | 23.33° C | 90% | 1012.3 hPa | - | 0.89 m/s, 180° | - | - |
| 1778192238 | 23.33° C | 89% | 1012.3 hPa | - | 0.89 m/s, 180° | - | - |
| 1778191338 | 23.33° C | 90% | 1012 hPa | - | 0.89 m/s, 135° | - | - |
| 1778190438 | 23.33° C | 89% | 1011.8 hPa | - | 1.34 m/s, 135° | - | - |
| 1778189539 | 23.33° C | 88% | 1011.7 hPa | - | 0.89 m/s, 135° | - | - |
| 1778188638 | 23.33° C | 88% | 1011.6 hPa | - | 0.45 m/s, 135° | - | - |
| 1778187739 | 23.33° C | 88% | 1011.3 hPa | - | 1.34 m/s, 135° | - | - |
| 1778186838 | 23.33° C | 87% | 1011.2 hPa | - | 1.34 m/s, 135° | - | - |
| 1778185938 | 23.33° C | 87% | 1011.1 hPa | - | 2.24 m/s, 135° | - | - |
| 1778185037 | 23.33° C | 87% | 1011 hPa | - | 1.79 m/s, 135° | - | - |
| 1778184138 | 23.33° C | 87% | 1010.8 hPa | - | 1.34 m/s, 135° | - | - |
| 1778183237 | 23.33° C | 87% | 1010.8 hPa | - | 1.34 m/s, 135° | - | - |
| 1778181437 | 23.33° C | 87% | 1011 hPa | - | 0.45 m/s, 135° | - | - |
| 1778179637 | 23.89° C | 86% | 1011.3 hPa | - | - | - | - |
* Rain since midnight (hover to see other rain measurements)
** Current wind speed in m/s (hover to see current wind gust speed)